Home   Weather   Gatlinburg   Past weeks
Flag for USA

Past Weather in Gatlinburg, Tennessee, USA — November 2019

Currently: 57 °F. Sunny. (Weather station: McGhee Tyson Airport, USA). See more current weather

November 2019 Weather in Gatlinburg — Graph

°F

High & Low Weather Summary for November 2019

 TemperatureHumidityPressure
High68 °F (Nov 6, 3:53 pm)100% (Nov 2, 6:44 am)30.41 "Hg (Nov 2, 6:44 am)
Low19 °F (Nov 13, 4:53 am)20% (Nov 27, 1:53 pm)29.58 "Hg (Nov 23, 3:53 pm)
Average46 °F72%30.11 "Hg
* Reported Nov 1 12:53 am — Nov 30 11:53 pm, Gatlinburg. Weather by CustomWeather, © 2021

Note: Actual official high and low records may vary slightly from our data, if they occured in-between our weather recording intervals... More about our weather records

Gatlinburg Weather History for November 1, 2019

Scroll right to see more
 ConditionsComfort  
Time TempWeatherWind HumidityBarometerVisibility
12:53 am
Fri, Nov 1
38 °FOvercast.5 mph68%30.26 "Hg10 mi
1:53 am37 °FPassing clouds.5 mph70%30.27 "Hg10 mi
2:53 am35 °FPassing clouds.3 mph78%30.28 "Hg10 mi
3:53 am35 °FPassing clouds.5 mph75%30.28 "Hg10 mi
4:53 am36 °FOvercast.7 mph73%30.28 "Hg10 mi
5:53 am36 °FOvercast.13 mph73%30.31 "Hg10 mi
6:53 am36 °FOvercast.7 mph73%30.32 "Hg10 mi
7:53 am36 °FOvercast.7 mph73%30.34 "Hg10 mi
8:53 am36 °FOvercast.9 mph73%30.36 "Hg10 mi
9:53 am37 °FOvercast.7 mph70%30.38 "Hg10 mi
10:53 am38 °FOvercast.9 mph68%30.40 "Hg10 mi
11:53 am40 °FOvercast.9 mph65%30.40 "Hg10 mi
12:16 pm41 °FPartly sunny.N/A62%30.39 "Hg10 mi
12:53 pm42 °FPartly sunny.7 mph62%30.38 "Hg10 mi
1:53 pm45 °FPassing clouds.9 mph58%30.34 "Hg10 mi
2:53 pm46 °FSunny.10 mph56%30.31 "Hg10 mi
3:53 pm48 °FPassing clouds.7 mph54%30.29 "Hg10 mi
4:53 pm48 °FSunny.9 mph54%30.28 "Hg10 mi
5:53 pm47 °FSunny.9 mph56%30.27 "Hg10 mi
6:53 pm43 °FClear.6 mph65%30.27 "Hg10 mi
7:53 pm42 °FClear.7 mph68%30.27 "Hg10 mi
8:53 pm40 °FClear.5 mph77%30.27 "Hg10 mi
9:53 pm39 °FClear.3 mph76%30.26 "Hg10 mi
11:02 pm37 °FPassing clouds.3 mph89%30.24 "Hg10 mi
11:53 pm37 °FPassing clouds.No wind86%30.25 "Hg10 mi
Weather by CustomWeather, © 2021

See weather overview